Hartford, Washington
Current Conditions -  °F | °C
As of 5:15 AM on Tuesday 21 Oct 2014 (Local Time) from KAWO Reporting Station
Overcast Overcast  
Wind Chill: 54°   Ceiling: 8000
Heat Index: 54°   Visibility: 10mi
Dew Point: 48°   Wind: 13mph
Humidity: 82%   Direction: 160°SSE
Pressure: 29.84"   Gusts: 17mph
Location:  48.0434°N, 122.062°W
Report Text: KAWO 211215Z AUTO 16011G15KT 10SM FEW055 OVC080 12/09 A2984 RMK AO1
Loading
Personal Weather Stations






























Interactive Weather Map
Tropical Storm Tracking
New forecast layout! Learn more

10-Day Weather Forecast

Advertisements
Track Severe Weather on mobile